Redan, GA (30074)

10:56 PM EDT on septembrie 15, 2014 (GMT -0400)
Havenridge | Change Station
CLOSE
Current Station
Staţie meteo personală
Location: Conyers, GA
Elevation: 879 ft
Nearby Weather Stations

Elev 879 ft 33.67 °N, 84.08 °W | Updated 6 minutes ago

Cer parţial noros
Cer parţial noros
71.4 °F
Feels Like 71.4 °F
N
0.0
Vânt variabil Vânt from VSV

astăzi
High -- | Low -- °F
--% Chance of Precip.
Ieri
High -- | Low -- °F
Precip. -- inch
7:19 AM 7:43 PM
Lună în descreştere, 50% visible
Presiunea 30.12 inch
Vizibilitatea 6.0 mile
Nori Few 11000 ft
Punctul de rouă 68 °F
Umiditatea 90%
Precipitaţii 0.00 inch
Adâncimea zăpezii Not available.
UV 0 out of 12
Pollen 7.50 out of 12
Ozon Bună
PM2.5 Moderată
Flu Activity Not available.
METAR KPDK 160153Z 00000KT 6SM BR FEW110 22/20 A3015 RMK AO2 SLP198 T02220200

More Conditions Fewer Conditions

Presiunea 30.12 inch
Vizibilitatea 6.0 mile
Nori Few 11000 ft
Punctul de rouă 68 °F
Umiditatea 90%
Precipitaţii 0.00 inch
Adâncimea zăpezii Not available.
UV 0 out of 12
Pollen 7.50 out of 12
Ozon Bună
PM2.5 Moderată
Flu Activity Not available.
METAR KPDK 160153Z 00000KT 6SM BR FEW110 22/20 A3015 RMK AO2 SLP198 T02220200

More Conditions Fewer Conditions

10-Day Weather Forecast

Almanac

Astronomie

Sep. 15, 2014 Răsărit Apus
Timpul Actual 7:19 AM EDT 7:43 PM EDT
Crepusculul Civil 6:54 AM EDT 8:07 PM EDT
Crepusculul nautic 6:25 AM EDT 8:37 PM EDT
Răsărit Astronomic 5:55 AM EDT 9:06 PM EDT
Luna Luna nu răsare 2:02 PM EDT (9/15)
Durata zilei lumină 13h 13m
Lungimea zilei
12h 23m
Tomorrow will be 2m 5s shorter.
Lună în descreştere, 50% of the Moon is Illuminated
astăzi
Lună în descreştere
Sep 24
New
Oct 1
Primul pătrar
Oct 8
Lună plină
Oct 15
Ultimul pătrar

Extremele de azi

State Highs State Lows

Community

WunderPhotos

Upload Photos

1,753,676 photos uploaded!

Nearby

Calitatea aerului

  Calitatea aerului Index de calitate a aerului Poluat
actual Moderată
PM2.5
actual Bună
OZONE
luni Bună
OZONE
luni Bună
PM2.5
marţi Bună
OZONE
marţi Bună
PM2.5

Adâncimea zapezii

Station Depth Elevation
No new snow has been reported.

Earthquake Activity

Oraş Distance Mag. Time & Date
No recent earthquake activity has been reported nearby.
Minimum magnitude displayed is 2.5.

Coastal Water Temperatures

Locul Temperatura
No Stations Reporting

Nearby Weather Stations